createdAt,value
2023-02-04T00:00:37.758Z,9.80
2023-02-04T00:03:06.922Z,9.70
2023-02-04T00:05:35.441Z,9.80
2023-02-04T00:08:06.902Z,9.80
2023-02-04T00:10:35.308Z,9.80
2023-02-04T00:13:03.812Z,9.80
2023-02-04T00:15:32.435Z,9.70
2023-02-04T00:18:02.138Z,9.70
2023-02-04T00:20:30.964Z,9.70
2023-02-04T00:22:59.619Z,9.70
2023-02-04T00:25:28.012Z,9.70
2023-02-04T00:27:56.428Z,9.80
2023-02-04T00:30:25.844Z,9.70
2023-02-04T00:32:55.072Z,9.70
2023-02-04T00:35:25.651Z,9.70
2023-02-04T00:37:54.791Z,9.70
2023-02-04T00:40:23.164Z,9.80
2023-02-04T00:42:51.671Z,9.70
2023-02-04T00:45:20.204Z,9.70
2023-02-04T00:47:48.623Z,9.80
2023-02-04T00:50:17.476Z,9.80
2023-02-04T00:52:47.438Z,9.70
2023-02-04T00:55:18.155Z,9.70
2023-02-04T00:57:47.542Z,9.70
2023-02-04T01:00:17.094Z,9.70
2023-02-04T01:02:45.889Z,9.50
2023-02-04T01:05:15.064Z,9.60
2023-02-04T01:07:43.541Z,9.50
2023-02-04T01:10:13.750Z,9.60
2023-02-04T01:12:42.347Z,9.60
2023-02-04T01:15:11.675Z,9.60
2023-02-04T01:17:41.616Z,9.60
2023-02-04T01:20:11.009Z,9.70
2023-02-04T01:22:39.432Z,9.80
2023-02-04T01:25:08.959Z,9.80
2023-02-04T01:27:45.839Z,9.80
2023-02-04T01:30:16.658Z,9.80
2023-02-04T01:32:45.062Z,9.80
2023-02-04T01:35:13.440Z,9.70
2023-02-04T01:37:41.863Z,9.60
2023-02-04T01:40:12.008Z,9.50
2023-02-04T01:42:41.246Z,9.50
2023-02-04T01:45:12.637Z,9.50
2023-02-04T01:47:41.434Z,9.40
2023-02-04T01:50:12.312Z,9.20
2023-02-04T01:52:41.290Z,9.20
2023-02-04T01:55:15.228Z,9.20
2023-02-04T01:57:44.307Z,9.00
2023-02-04T02:00:17.922Z,8.90
2023-02-04T02:02:50.625Z,8.70
2023-02-04T02:05:23.096Z,8.80
2023-02-04T02:07:54.501Z,8.80
2023-02-04T02:10:23.567Z,8.80
2023-02-04T02:12:52.462Z,8.80
2023-02-04T02:15:22.533Z,8.90
2023-02-04T02:17:52.411Z,8.90
2023-02-04T02:20:23.524Z,9.00
2023-02-04T02:23:00.836Z,9.00
2023-02-04T02:25:30.751Z,9.00
2023-02-04T02:28:00.796Z,8.90
2023-02-04T02:30:31.032Z,8.90
2023-02-04T02:33:00.325Z,8.90
2023-02-04T02:35:29.003Z,8.90
2023-02-04T02:37:58.704Z,8.90
2023-02-04T02:40:27.243Z,8.90
2023-02-04T02:42:57.037Z,8.90
2023-02-04T02:45:27.276Z,8.90
2023-02-04T02:47:57.309Z,8.90
2023-02-04T02:50:30.124Z,9.00
2023-02-04T02:52:59.703Z,9.10
2023-02-04T02:55:29.778Z,9.10
2023-02-04T02:58:00.860Z,9.20
2023-02-04T03:00:31.267Z,9.20
2023-02-04T03:03:09.564Z,9.30
2023-02-04T03:05:42.219Z,9.30
2023-02-04T03:08:13.274Z,9.30
2023-02-04T03:10:42.426Z,9.40
2023-02-04T03:13:13.393Z,9.40
2023-02-04T03:15:43.928Z,9.40
2023-02-04T03:18:13.861Z,9.40
2023-02-04T03:20:43.085Z,9.40
2023-02-04T03:23:12.942Z,9.40
2023-02-04T03:25:42.966Z,9.50
2023-02-04T03:28:12.775Z,9.40
2023-02-04T03:30:41.244Z,9.40
2023-02-04T03:33:09.642Z,9.50
2023-02-04T03:35:38.022Z,9.50
2023-02-04T03:38:06.400Z,9.50
2023-02-04T03:40:34.750Z,9.50
2023-02-04T03:43:03.094Z,9.50
2023-02-04T03:45:44.703Z,9.40
2023-02-04T03:48:13.897Z,9.40
2023-02-04T03:50:42.219Z,9.40
2023-02-04T03:53:11.424Z,9.40
2023-02-04T03:55:39.826Z,9.50
2023-02-04T03:58:08.168Z,9.50
2023-02-04T04:00:37.927Z,9.50
2023-02-04T04:03:06.407Z,9.50
2023-02-04T04:05:35.062Z,9.50
2023-02-04T04:08:03.426Z,9.50
2023-02-04T04:10:32.065Z,9.50
2023-02-04T04:13:00.579Z,9.50
2023-02-04T04:15:28.858Z,9.50
2023-02-04T04:17:58.632Z,9.40
2023-02-04T04:20:28.155Z,9.50
2023-02-04T04:22:56.584Z,9.50
2023-02-04T04:25:25.061Z,9.60
2023-02-04T04:27:53.510Z,9.60
2023-02-04T04:30:21.963Z,9.50
2023-02-04T04:32:50.313Z,9.60
2023-02-04T04:35:20.037Z,9.60
2023-02-04T04:37:48.480Z,9.50
2023-02-04T04:40:17.175Z,9.50
2023-02-04T04:42:45.536Z,9.50
2023-02-04T04:45:14.398Z,9.50
2023-02-04T04:47:42.796Z,9.50
2023-02-04T04:50:11.431Z,9.50
2023-02-04T04:52:41.227Z,9.60
2023-02-04T04:55:10.327Z,9.60
2023-02-04T04:57:38.757Z,9.60
2023-02-04T05:00:08.955Z,9.60
2023-02-04T05:02:37.293Z,9.60
2023-02-04T05:05:05.988Z,9.60
2023-02-04T05:07:34.351Z,9.60
2023-02-04T05:10:04.272Z,9.60
2023-02-04T05:12:32.674Z,9.60
2023-02-04T05:15:01.030Z,9.60
2023-02-04T05:17:29.437Z,9.70
2023-02-04T05:19:57.793Z,9.60
2023-02-04T05:22:26.226Z,9.70
2023-02-04T05:24:54.601Z,9.70
2023-02-04T05:27:24.644Z,9.70
2023-02-04T05:29:53.057Z,9.70
2023-02-04T05:32:21.458Z,9.60
2023-02-04T05:34:49.839Z,9.70
2023-02-04T05:37:20.982Z,9.70
2023-02-04T05:39:49.351Z,9.70
2023-02-04T05:42:17.709Z,9.70
2023-02-04T05:44:47.465Z,9.70
2023-02-04T05:47:16.203Z,9.70
2023-02-04T05:49:44.576Z,9.70
2023-02-04T05:52:13.105Z,9.70
2023-02-04T05:54:41.472Z,9.60
2023-02-04T05:57:09.814Z,9.70
2023-02-04T05:59:38.193Z,9.70
2023-02-04T06:02:08.001Z,9.70
2023-02-04T06:04:36.480Z,9.70
2023-02-04T06:07:04.900Z,9.70
2023-02-04T06:09:33.294Z,9.70
2023-02-04T06:12:01.639Z,9.70
2023-02-04T06:14:29.954Z,9.70
2023-02-04T06:16:59.838Z,9.70
2023-02-04T06:19:29.700Z,9.70
2023-02-04T06:21:58.021Z,9.70
2023-02-04T06:24:26.437Z,9.70
2023-02-04T06:26:54.798Z,9.70
2023-02-04T06:29:23.285Z,9.70
2023-02-04T06:31:51.825Z,9.70
2023-02-04T06:34:20.194Z,9.60
2023-02-04T06:36:49.879Z,9.60
2023-02-04T06:39:18.309Z,9.60
2023-02-04T06:41:46.709Z,9.60
2023-02-04T06:44:15.069Z,9.60
2023-02-04T06:46:43.480Z,9.60
2023-02-04T06:49:11.805Z,9.60
2023-02-04T06:51:40.097Z,9.60
2023-02-04T06:54:09.897Z,9.60
2023-02-04T06:56:38.227Z,9.50
2023-02-04T06:59:06.677Z,9.50
2023-02-04T07:01:35.152Z,9.50
2023-02-04T07:04:03.747Z,9.50
2023-02-04T07:06:32.099Z,9.50
2023-02-04T07:09:00.562Z,9.50
2023-02-04T07:11:31.319Z,9.50
2023-02-04T07:13:59.729Z,9.50
2023-02-04T07:16:28.095Z,9.50
2023-02-04T07:18:56.458Z,9.60
2023-02-04T07:21:24.842Z,9.60
2023-02-04T07:23:53.253Z,9.50
2023-02-04T07:26:21.645Z,9.50
2023-02-04T07:28:52.285Z,9.50
2023-02-04T07:31:20.861Z,9.60
2023-02-04T07:33:49.258Z,9.70
2023-02-04T07:36:17.777Z,9.60
2023-02-04T07:38:46.205Z,9.50
2023-02-04T07:41:14.553Z,9.60
2023-02-04T07:43:43.072Z,9.60
2023-02-04T07:46:12.854Z,9.60
2023-02-04T07:48:41.201Z,9.70
2023-02-04T07:51:10.585Z,9.70
2023-02-04T07:53:38.915Z,9.70
2023-02-04T07:56:07.597Z,9.80
2023-02-04T07:58:36.005Z,9.80
2023-02-04T08:01:04.481Z,9.80
2023-02-04T08:03:34.185Z,9.90
2023-02-04T08:06:02.712Z,9.90
2023-02-04T08:08:31.321Z,9.90
2023-02-04T08:10:59.817Z,10.00
2023-02-04T08:13:28.232Z,10.10
2023-02-04T08:15:56.631Z,10.10
2023-02-04T08:18:25.562Z,10.10
2023-02-04T08:20:55.344Z,10.20
2023-02-04T08:23:24.078Z,10.20
2023-02-04T08:25:52.423Z,10.30
2023-02-04T08:28:20.878Z,10.30
2023-02-04T08:30:49.322Z,10.30
2023-02-04T08:33:17.782Z,10.40
2023-02-04T08:35:46.161Z,10.40
2023-02-04T08:38:15.906Z,10.40
2023-02-04T08:40:44.678Z,10.50
2023-02-04T08:43:13.024Z,10.60
2023-02-04T08:45:41.688Z,10.70
2023-02-04T08:48:10.042Z,10.80
2023-02-04T08:50:39.111Z,10.90
2023-02-04T08:53:07.607Z,10.90
2023-02-04T08:55:37.373Z,11.00
2023-02-04T08:58:05.698Z,11.00
2023-02-04T09:00:34.460Z,10.90
2023-02-04T09:03:03.123Z,11.00
2023-02-04T09:05:31.545Z,11.00
2023-02-04T09:07:59.978Z,11.10
2023-02-04T09:10:28.404Z,11.20
2023-02-04T09:12:58.085Z,11.30
2023-02-04T09:15:26.974Z,11.40
2023-02-04T09:18:04.841Z,11.30
2023-02-04T09:20:36.088Z,11.40
2023-02-04T09:23:04.672Z,11.50
2023-02-04T09:25:33.042Z,11.50
2023-02-04T09:28:02.993Z,11.60
2023-02-04T09:30:31.734Z,11.60
2023-02-04T09:33:00.229Z,11.70
2023-02-04T09:35:30.368Z,11.70
2023-02-04T09:37:58.905Z,11.70
2023-02-04T09:40:29.688Z,11.60
2023-02-04T09:42:58.635Z,11.50
2023-02-04T09:45:30.681Z,11.60
2023-02-04T09:48:01.241Z,11.70
2023-02-04T09:50:32.272Z,11.70
2023-02-04T09:53:04.564Z,11.80
2023-02-04T09:55:35.765Z,11.80
2023-02-04T09:58:06.967Z,11.70
2023-02-04T10:00:37.256Z,11.70
2023-02-04T10:03:15.337Z,11.70
2023-02-04T10:05:44.260Z,11.70
2023-02-04T10:08:16.022Z,11.80
2023-02-04T10:10:45.232Z,11.80
2023-02-04T10:13:19.568Z,11.90
2023-02-04T10:15:51.023Z,11.90
2023-02-04T10:18:25.388Z,12.00
2023-02-04T10:20:56.686Z,12.10
2023-02-04T10:23:25.188Z,12.00
2023-02-04T10:25:53.488Z,12.10
2023-02-04T10:28:22.380Z,12.20
2023-02-04T10:30:52.199Z,12.20
2023-02-04T10:33:25.766Z,12.20
2023-02-04T10:35:56.552Z,12.20
2023-02-04T10:38:25.328Z,12.30
2023-02-04T10:41:02.710Z,12.30
2023-02-04T10:43:31.109Z,12.50
2023-02-04T10:46:03.353Z,12.70
2023-02-04T10:48:40.698Z,12.70
2023-02-04T10:51:14.409Z,12.80
2023-02-04T10:54:03.746Z,12.90
2023-02-04T10:56:32.783Z,12.90
2023-02-04T10:59:01.171Z,13.00
2023-02-04T11:01:32.230Z,13.00
2023-02-04T11:04:00.610Z,13.00
2023-02-04T11:06:29.781Z,13.00
2023-02-04T11:09:00.684Z,13.00
2023-02-04T11:11:30.089Z,13.00
2023-02-04T11:14:04.303Z,12.90
2023-02-04T11:16:35.622Z,12.90
2023-02-04T11:19:06.065Z,12.80
2023-02-04T11:21:44.631Z,12.70
2023-02-04T11:24:25.596Z,12.70
2023-02-04T11:27:06.278Z,12.70
2023-02-04T11:29:38.234Z,12.70
2023-02-04T11:32:28.214Z,12.70
2023-02-04T11:35:06.657Z,12.70
2023-02-04T11:37:38.748Z,12.80
2023-02-04T11:40:28.731Z,13.00
2023-02-04T11:43:02.234Z,13.20
2023-02-04T11:45:36.057Z,13.40
2023-02-04T11:48:14.186Z,13.40
2023-02-04T11:50:43.094Z,13.30
2023-02-04T11:53:12.798Z,13.20
2023-02-04T11:55:47.554Z,13.10
2023-02-04T11:58:19.604Z,13.00
2023-02-04T12:00:48.354Z,13.10
2023-02-04T12:03:26.967Z,13.10
2023-02-04T12:05:56.144Z,13.10
2023-02-04T12:08:32.418Z,13.20
2023-02-04T12:11:07.557Z,13.10
2023-02-04T12:13:46.517Z,12.90
2023-02-04T12:16:15.030Z,12.90
2023-02-04T12:18:44.789Z,12.60
2023-02-04T12:21:14.439Z,12.60
2023-02-04T12:23:43.518Z,12.50
2023-02-04T12:26:12.296Z,12.40
2023-02-04T12:28:40.649Z,12.40
2023-02-04T12:31:09.194Z,12.20
2023-02-04T12:33:37.710Z,12.20
2023-02-04T12:36:08.444Z,12.10
2023-02-04T12:38:36.877Z,12.00
2023-02-04T12:41:05.471Z,11.80
2023-02-04T12:43:33.787Z,11.60
2023-02-04T12:46:02.307Z,11.50
2023-02-04T12:48:30.783Z,11.40
2023-02-04T12:50:59.084Z,11.50
2023-02-04T12:53:29.077Z,11.30
2023-02-04T12:55:57.883Z,11.30
2023-02-04T12:58:26.362Z,11.40
2023-02-04T13:00:56.250Z,11.40
2023-02-04T13:03:25.295Z,11.30
2023-02-04T13:05:54.584Z,11.50
2023-02-04T13:08:23.018Z,11.30
2023-02-04T13:10:52.847Z,11.40
2023-02-04T13:13:22.191Z,11.40
2023-02-04T13:15:50.872Z,11.40
2023-02-04T13:18:19.559Z,11.60
2023-02-04T13:20:47.965Z,11.90
2023-02-04T13:23:16.335Z,12.00
2023-02-04T13:25:45.215Z,12.10
2023-02-04T13:28:15.048Z,12.30
2023-02-04T13:30:43.574Z,12.40
2023-02-04T13:33:11.903Z,12.40
2023-02-04T13:35:40.929Z,12.30
2023-02-04T13:38:09.212Z,12.30
2023-02-04T13:40:38.046Z,12.40
2023-02-04T13:43:06.296Z,12.30
2023-02-04T13:45:36.205Z,12.30
2023-02-04T13:48:04.775Z,12.20
2023-02-04T13:50:33.318Z,12.20
2023-02-04T13:53:01.909Z,12.20
2023-02-04T13:55:30.605Z,12.00
2023-02-04T13:57:59.197Z,12.00
2023-02-04T14:00:27.600Z,12.00
2023-02-04T14:02:57.641Z,12.00
2023-02-04T14:05:26.250Z,12.00
2023-02-04T14:07:54.630Z,12.00
2023-02-04T14:10:24.982Z,12.00
2023-02-04T14:12:54.138Z,12.00
2023-02-04T14:15:22.441Z,12.00
2023-02-04T14:17:50.834Z,12.00
2023-02-04T14:20:20.693Z,12.00
2023-02-04T14:22:49.013Z,12.00
2023-02-04T14:25:17.491Z,12.10
2023-02-04T14:27:45.920Z,12.20
2023-02-04T14:30:18.881Z,12.30
2023-02-04T14:32:47.453Z,12.30
2023-02-04T14:35:17.236Z,12.30
2023-02-04T14:37:47.241Z,12.40
2023-02-04T14:40:17.420Z,12.40
2023-02-04T14:42:46.263Z,12.40
2023-02-04T14:45:16.005Z,12.40
2023-02-04T14:47:44.399Z,12.40
2023-02-04T14:50:16.302Z,12.40
2023-02-04T14:52:46.134Z,12.40
2023-02-04T14:55:15.182Z,12.40
2023-02-04T14:57:43.520Z,12.40
2023-02-04T15:00:13.029Z,12.30
2023-02-04T15:02:42.408Z,12.40
2023-02-04T15:05:11.680Z,12.30
2023-02-04T15:07:40.334Z,12.40
2023-02-04T15:10:11.800Z,12.40
2023-02-04T15:12:40.936Z,12.40
2023-02-04T15:15:10.384Z,12.40
2023-02-04T15:17:38.748Z,12.40
2023-02-04T15:20:08.543Z,12.40
2023-02-04T15:22:37.008Z,12.40
2023-02-04T15:25:05.839Z,12.30
2023-02-04T15:27:35.621Z,12.40
2023-02-04T15:30:04.247Z,12.30
2023-02-04T15:32:32.627Z,12.30
2023-02-04T15:35:01.009Z,12.30
2023-02-04T15:37:29.481Z,12.30
2023-02-04T15:39:57.839Z,12.20
2023-02-04T15:42:26.270Z,12.30
2023-02-04T15:44:56.466Z,12.20
2023-02-04T15:47:24.803Z,12.20
2023-02-04T15:49:53.102Z,12.20
2023-02-04T15:52:25.225Z,12.20
2023-02-04T15:54:54.065Z,12.10
2023-02-04T15:57:22.418Z,12.10
2023-02-04T15:59:50.822Z,12.10
2023-02-04T16:02:20.616Z,12.00
2023-02-04T16:04:49.464Z,11.90
2023-02-04T16:07:17.941Z,11.90
2023-02-04T16:09:46.628Z,11.90
2023-02-04T16:12:15.079Z,11.80
2023-02-04T16:14:43.461Z,11.80
2023-02-04T16:17:11.811Z,11.80
2023-02-04T16:19:41.578Z,11.70
2023-02-04T16:22:10.054Z,11.70
2023-02-04T16:24:38.630Z,11.60
2023-02-04T16:27:07.177Z,11.60
2023-02-04T16:29:35.471Z,11.60
2023-02-04T16:32:03.895Z,11.50
2023-02-04T16:34:32.229Z,11.50
2023-02-04T16:37:01.951Z,11.40
2023-02-04T16:39:30.337Z,11.30
2023-02-04T16:41:58.681Z,11.30
2023-02-04T16:44:27.155Z,11.30
2023-02-04T16:46:55.566Z,11.20
2023-02-04T16:49:24.450Z,11.20
2023-02-04T16:51:52.844Z,11.10
2023-02-04T16:54:22.545Z,11.10
2023-02-04T16:56:50.922Z,11.00
2023-02-04T16:59:19.274Z,11.00
2023-02-04T17:01:47.693Z,11.00
2023-02-04T17:04:16.109Z,11.00
2023-02-04T17:06:44.411Z,11.00
2023-02-04T17:09:12.693Z,11.00
2023-02-04T17:11:42.503Z,11.00
2023-02-04T17:14:15.731Z,10.90
2023-02-04T17:16:44.804Z,10.90
2023-02-04T17:19:13.739Z,10.80
2023-02-04T17:21:42.247Z,10.80
2023-02-04T17:24:11.868Z,10.80
2023-02-04T17:26:42.350Z,10.80
2023-02-04T17:29:12.525Z,10.70
2023-02-04T17:31:42.865Z,10.70
2023-02-04T17:34:11.940Z,10.70
2023-02-04T17:36:40.238Z,10.70
2023-02-04T17:39:08.630Z,10.60
2023-02-04T17:41:37.011Z,10.60
2023-02-04T17:44:07.068Z,10.60
2023-02-04T17:46:35.691Z,10.60
2023-02-04T17:49:04.105Z,10.60
2023-02-04T17:51:32.995Z,10.60
2023-02-04T17:54:01.486Z,10.60
2023-02-04T17:56:29.840Z,10.60
2023-02-04T17:58:58.237Z,10.60
2023-02-04T18:01:28.119Z,10.50
2023-02-04T18:03:56.656Z,10.50
2023-02-04T18:06:29.035Z,10.50
2023-02-04T18:09:01.876Z,10.50
2023-02-04T18:11:33.236Z,10.50
2023-02-04T18:14:11.424Z,10.50
2023-02-04T18:16:41.616Z,10.50
2023-02-04T18:19:18.988Z,10.50
2023-02-04T18:21:49.582Z,10.50
2023-02-04T18:24:19.761Z,10.50
2023-02-04T18:26:49.975Z,10.50
2023-02-04T18:29:33.242Z,10.50
2023-02-04T18:32:07.329Z,10.50
2023-02-04T18:34:37.716Z,10.50
2023-02-04T18:37:31.182Z,10.50
2023-02-04T18:40:27.615Z,10.40
2023-02-04T18:43:06.909Z,10.40
2023-02-04T18:45:36.213Z,10.40
2023-02-04T18:48:48.728Z,10.30
2023-02-04T18:51:25.360Z,10.40
2023-02-04T18:53:56.075Z,10.30
2023-02-04T18:56:24.394Z,10.30
2023-02-04T18:58:53.502Z,10.20
2023-02-04T19:01:25.402Z,10.20
2023-02-04T19:03:57.510Z,10.20
2023-02-04T19:06:28.717Z,10.20
2023-02-04T19:09:06.550Z,10.20
2023-02-04T19:11:36.970Z,10.20
2023-02-04T19:14:18.695Z,10.10
2023-02-04T19:16:48.034Z,10.10
2023-02-04T19:19:38.470Z,10.10
2023-02-04T19:22:19.676Z,10.10
2023-02-04T19:24:48.544Z,10.00
2023-02-04T19:27:30.548Z,9.90
2023-02-04T19:30:00.671Z,9.90
2023-02-04T19:32:33.396Z,9.80
2023-02-04T19:35:18.194Z,9.80
2023-02-04T19:37:51.140Z,9.80
2023-02-04T19:40:26.442Z,9.90
2023-02-04T19:42:56.348Z,9.90
2023-02-04T19:45:26.420Z,9.90
2023-02-04T19:47:56.683Z,9.90
2023-02-04T19:50:30.973Z,10.00
2023-02-04T19:53:02.640Z,10.00
2023-02-04T19:55:42.805Z,10.00
2023-02-04T19:58:18.084Z,10.10
2023-02-04T20:01:00.822Z,10.10
2023-02-04T20:03:37.383Z,10.10
2023-02-04T20:06:30.228Z,10.10
2023-02-04T20:09:05.090Z,10.20
2023-02-04T20:11:45.063Z,10.10
2023-02-04T20:14:47.269Z,10.10
2023-02-04T20:17:37.658Z,10.10
2023-02-04T20:20:19.167Z,10.10
2023-02-04T20:22:51.010Z,10.10
2023-02-04T20:25:38.965Z,10.10
2023-02-04T20:28:34.008Z,10.10
2023-02-04T20:31:03.380Z,10.10
2023-02-04T20:33:36.081Z,10.10
2023-02-04T20:36:29.727Z,10.10
2023-02-04T20:39:45.616Z,10.10
2023-02-04T20:42:33.727Z,10.00
2023-02-04T20:45:21.429Z,10.10
2023-02-04T20:47:52.532Z,10.00
2023-02-04T20:50:41.685Z,10.10
2023-02-04T20:53:22.762Z,10.00
2023-02-04T20:55:55.564Z,10.00
2023-02-04T20:58:25.398Z,10.00
2023-02-04T21:00:55.916Z,10.00
2023-02-04T21:03:27.549Z,10.00
2023-02-04T21:05:57.496Z,9.90
2023-02-04T21:08:29.452Z,9.90
2023-02-04T21:10:59.576Z,9.90
2023-02-04T21:13:28.055Z,9.90
2023-02-04T21:15:56.664Z,9.90
2023-02-04T21:18:25.259Z,9.90
2023-02-04T21:20:53.618Z,9.90
2023-02-04T21:23:21.989Z,9.90
2023-02-04T21:25:50.364Z,9.90
2023-02-04T21:28:20.115Z,9.90
2023-02-04T21:30:48.601Z,9.90
2023-02-04T21:33:17.278Z,9.80
2023-02-04T21:35:45.925Z,9.80
2023-02-04T21:38:14.284Z,9.90
2023-02-04T21:40:43.682Z,9.90
2023-02-04T21:43:12.148Z,9.90
2023-02-04T21:45:43.096Z,9.90
2023-02-04T21:48:11.557Z,9.80
2023-02-04T21:50:39.874Z,9.80
2023-02-04T21:53:09.143Z,9.80
2023-02-04T21:55:37.963Z,9.70
2023-02-04T21:58:06.379Z,9.80
2023-02-04T22:00:35.124Z,9.70
2023-02-04T22:03:06.160Z,9.70
2023-02-04T22:05:35.469Z,9.80
2023-02-04T22:08:03.956Z,9.80
2023-02-04T22:10:32.323Z,9.80
2023-02-04T22:13:00.593Z,9.80
2023-02-04T22:15:29.217Z,9.80
2023-02-04T22:17:57.671Z,9.80
2023-02-04T22:20:27.795Z,9.80
2023-02-04T22:22:56.192Z,9.80
2023-02-04T22:25:24.555Z,9.80
2023-02-04T22:27:52.926Z,9.80
2023-02-04T22:30:21.462Z,9.80
2023-02-04T22:32:49.889Z,9.80
2023-02-04T22:35:18.322Z,9.80
2023-02-04T22:37:48.013Z,9.80
2023-02-04T22:40:16.349Z,9.80
2023-02-04T22:42:45.785Z,9.80
2023-02-04T22:45:14.139Z,9.70
2023-02-04T22:47:42.433Z,9.70
2023-02-04T22:50:11.371Z,9.70
2023-02-04T22:52:39.775Z,9.80
2023-02-04T22:55:09.822Z,9.70
2023-02-04T22:57:38.258Z,9.70
2023-02-04T23:00:10.108Z,9.60
2023-02-04T23:02:38.535Z,9.60
2023-02-04T23:05:07.640Z,9.50
2023-02-04T23:07:36.213Z,9.40
2023-02-04T23:10:04.787Z,9.30
2023-02-04T23:12:34.522Z,9.30
2023-02-04T23:15:02.893Z,9.10
2023-02-04T23:17:31.249Z,9.10
2023-02-04T23:19:59.702Z,9.10
2023-02-04T23:22:28.061Z,9.20
2023-02-04T23:24:56.432Z,9.20
2023-02-04T23:27:24.792Z,9.30
2023-02-04T23:29:54.497Z,9.30
2023-02-04T23:32:23.423Z,9.40
2023-02-04T23:34:51.729Z,9.40
2023-02-04T23:37:20.177Z,9.40
2023-02-04T23:39:48.551Z,9.30
2023-02-04T23:42:18.531Z,9.40
2023-02-04T23:44:46.927Z,9.40
2023-02-04T23:47:16.570Z,9.40
2023-02-04T23:49:45.945Z,9.40
2023-02-04T23:52:14.322Z,9.40
2023-02-04T23:54:42.810Z,9.50
2023-02-04T23:57:11.632Z,9.50
2023-02-04T23:59:42.163Z,9.50
